sensor_id;sensor_type;location;lat;lon;timestamp;pressure;altitude;pressure_sealevel;temperature;humidity
51460;BME280;37534;39.772;2.718;2023-11-19T00:02:13;102156.41;;;10.89;100.00
51460;BME280;37534;39.772;2.718;2023-11-19T00:04:39;102139.22;;;10.79;100.00
51460;BME280;37534;39.772;2.718;2023-11-19T00:07:05;102150.44;;;10.75;100.00
51460;BME280;37534;39.772;2.718;2023-11-19T00:09:33;102161.66;;;10.66;100.00
51460;BME280;37534;39.772;2.718;2023-11-19T00:11:58;102168.53;;;10.75;100.00
51460;BME280;37534;39.772;2.718;2023-11-19T00:14:26;102144.47;;;10.59;100.00
51460;BME280;37534;39.772;2.718;2023-11-19T00:16:52;102171.97;;;10.60;100.00
51460;BME280;37534;39.772;2.718;2023-11-19T00:19:19;102139.31;;;10.54;100.00
51460;BME280;37534;39.772;2.718;2023-11-19T00:21:44;102155.66;;;10.58;100.00
51460;BME280;37534;39.772;2.718;2023-11-19T00:24:11;102135.91;;;10.40;100.00
51460;BME280;37534;39.772;2.718;2023-11-19T00:26:38;102140.22;;;10.33;100.00
51460;BME280;37534;39.772;2.718;2023-11-19T00:29:03;102119.59;;;10.22;100.00
51460;BME280;37534;39.772;2.718;2023-11-19T00:31:29;102149.66;;;10.37;100.00
51460;BME280;37534;39.772;2.718;2023-11-19T00:33:54;102137.63;;;10.27;100.00
51460;BME280;37534;39.772;2.718;2023-11-19T00:36:20;102138.50;;;10.23;100.00
51460;BME280;37534;39.772;2.718;2023-11-19T00:38:46;102148.84;;;10.32;100.00
51460;BME280;37534;39.772;2.718;2023-11-19T00:41:11;102130.78;;;10.17;100.00
51460;BME280;37534;39.772;2.718;2023-11-19T00:43:37;102118.75;;;10.09;100.00
51460;BME280;37534;39.772;2.718;2023-11-19T00:46:03;102132.50;;;10.10;100.00
51460;BME280;37534;39.772;2.718;2023-11-19T00:48:32;102131.63;;;10.16;100.00
51460;BME280;37534;39.772;2.718;2023-11-19T00:50:57;102125.63;;;10.06;100.00
51460;BME280;37534;39.772;2.718;2023-11-19T00:53:23;102120.47;;;9.98;100.00
51460;BME280;37534;39.772;2.718;2023-11-19T00:55:48;102133.34;;;9.98;100.00
51460;BME280;37534;39.772;2.718;2023-11-19T00:58:14;102125.59;;;10.11;100.00
51460;BME280;37534;39.772;2.718;2023-11-19T01:00:40;102120.50;;;9.97;100.00
51460;BME280;37534;39.772;2.718;2023-11-19T01:03:05;102102.47;;;9.86;100.00
51460;BME280;37534;39.772;2.718;2023-11-19T01:05:32;102088.69;;;9.90;100.00
51460;BME280;37534;39.772;2.718;2023-11-19T01:07:58;102136.81;;;10.13;100.00
51460;BME280;37534;39.772;2.718;2023-11-19T01:10:24;102118.75;;;9.91;100.00
51460;BME280;37534;39.772;2.718;2023-11-19T01:12:51;102129.06;;;9.94;100.00
51460;BME280;37534;39.772;2.718;2023-11-19T01:15:17;102126.47;;;10.03;100.00
51460;BME280;37534;39.772;2.718;2023-11-19T01:17:44;102117.91;;;9.92;100.00
51460;BME280;37534;39.772;2.718;2023-11-19T01:20:11;102077.53;;;9.60;100.00
51460;BME280;37534;39.772;2.718;2023-11-19T01:22:38;102128.22;;;9.83;100.00
51460;BME280;37534;39.772;2.718;2023-11-19T01:25:05;102093.84;;;9.61;100.00
51460;BME280;37534;39.772;2.718;2023-11-19T01:27:33;102108.44;;;9.59;100.00
51460;BME280;37534;39.772;2.718;2023-11-19T01:30:03;102108.47;;;9.60;100.00
51460;BME280;37534;39.772;2.718;2023-11-19T01:32:31;102099.03;;;9.47;100.00
51460;BME280;37534;39.772;2.718;2023-11-19T01:34:57;102107.59;;;9.55;100.00
51460;BME280;37534;39.772;2.718;2023-11-19T01:37:22;102093.84;;;9.59;100.00
51460;BME280;37534;39.772;2.718;2023-11-19T01:39:51;102092.13;;;9.55;100.00
51460;BME280;37534;39.772;2.718;2023-11-19T01:42:16;102109.31;;;9.71;100.00
51460;BME280;37534;39.772;2.718;2023-11-19T01:44:53;102088.72;;;9.56;100.00
51460;BME280;37534;39.772;2.718;2023-11-19T01:47:19;102080.97;;;9.45;100.00
51460;BME280;37534;39.772;2.718;2023-11-19T01:49:45;102085.28;;;9.42;100.00
51460;BME280;37534;39.772;2.718;2023-11-19T01:52:10;102098.16;;;9.51;100.00
51460;BME280;37534;39.772;2.718;2023-11-19T01:54:39;102055.19;;;9.22;100.00
51460;BME280;37534;39.772;2.718;2023-11-19T01:57:04;102103.31;;;9.59;100.00
51460;BME280;37534;39.772;2.718;2023-11-19T01:59:31;102076.69;;;9.49;100.00
51460;BME280;37534;39.772;2.718;2023-11-19T02:01:57;102082.69;;;9.57;100.00
51460;BME280;37534;39.772;2.718;2023-11-19T02:04:23;102071.53;;;9.46;100.00
51460;BME280;37534;39.772;2.718;2023-11-19T02:06:51;102076.66;;;9.43;100.00
51460;BME280;37534;39.772;2.718;2023-11-19T02:09:19;102055.22;;;9.24;100.00
51460;BME280;37534;39.772;2.718;2023-11-19T02:11:45;102012.25;;;9.20;100.00
51460;BME280;37534;39.772;2.718;2023-11-19T02:14:15;102029.44;;;9.18;100.00
51460;BME280;37534;39.772;2.718;2023-11-19T02:16:41;102074.97;;;9.51;100.00
51460;BME280;37534;39.772;2.718;2023-11-19T02:19:07;102074.09;;;9.69;100.00
51460;BME280;37534;39.772;2.718;2023-11-19T02:21:35;102070.66;;;9.73;100.00
51460;BME280;37534;39.772;2.718;2023-11-19T02:24:06;102087.00;;;9.86;100.00
51460;BME280;37534;39.772;2.718;2023-11-19T02:26:40;102073.25;;;9.68;100.00
51460;BME280;37534;39.772;2.718;2023-11-19T02:29:09;102063.81;;;9.58;100.00
51460;BME280;37534;39.772;2.718;2023-11-19T02:31:34;102065.50;;;9.48;100.00
51460;BME280;37534;39.772;2.718;2023-11-19T02:34:00;102089.56;;;9.50;100.00
51460;BME280;37534;39.772;2.718;2023-11-19T02:36:27;102077.53;;;9.43;100.00
51460;BME280;37534;39.772;2.718;2023-11-19T02:38:53;102068.94;;;9.35;100.00
51460;BME280;37534;39.772;2.718;2023-11-19T02:41:19;102074.97;;;9.39;100.00
51460;BME280;37534;39.772;2.718;2023-11-19T02:43:44;102074.94;;;9.29;100.00
51460;BME280;37534;39.772;2.718;2023-11-19T02:46:10;102067.22;;;9.28;100.00
51460;BME280;37534;39.772;2.718;2023-11-19T02:48:38;102072.38;;;9.42;100.00
51460;BME280;37534;39.772;2.718;2023-11-19T02:51:04;102078.41;;;9.44;100.00
51460;BME280;37534;39.772;2.718;2023-11-19T02:53:31;102074.97;;;9.43;100.00
51460;BME280;37534;39.772;2.718;2023-11-19T02:55:57;102081.81;;;9.41;100.00
51460;BME280;37534;39.772;2.718;2023-11-19T02:58:43;102056.03;;;9.21;100.00
51460;BME280;37534;39.772;2.718;2023-11-19T03:01:10;102041.41;;;8.94;100.00
51460;BME280;37534;39.772;2.718;2023-11-19T03:03:44;102059.47;;;9.14;100.00
51460;BME280;37534;39.772;2.718;2023-11-19T03:06:14;102086.97;;;9.40;100.00
51460;BME280;37534;39.772;2.718;2023-11-19T03:08:40;102065.50;;;9.24;100.00
51460;BME280;37534;39.772;2.718;2023-11-19T03:11:05;102062.91;;;9.10;100.00
51460;BME280;37534;39.772;2.718;2023-11-19T03:13:31;102057.75;;;9.01;100.00
51460;BME280;37534;39.772;2.718;2023-11-19T03:15:56;102056.00;;;8.97;100.00
51460;BME280;37534;39.772;2.718;2023-11-19T03:18:22;102053.41;;;8.93;100.00
51460;BME280;37534;39.772;2.718;2023-11-19T03:20:47;102071.47;;;9.07;100.00
51460;BME280;37534;39.772;2.718;2023-11-19T03:23:13;102069.78;;;9.17;100.00
51460;BME280;37534;39.772;2.718;2023-11-19T03:25:38;102068.94;;;9.35;100.00
51460;BME280;37534;39.772;2.718;2023-11-19T03:28:04;102065.50;;;9.39;100.00
51460;BME280;37534;39.772;2.718;2023-11-19T03:30:33;102028.53;;;8.99;100.00
51460;BME280;37534;39.772;2.718;2023-11-19T03:32:59;102045.72;;;9.06;100.00
51460;BME280;37534;39.772;2.718;2023-11-19T03:35:26;102050.88;;;9.03;100.00
51460;BME280;37534;39.772;2.718;2023-11-19T03:37:53;102050.84;;;8.97;100.00
51460;BME280;37534;39.772;2.718;2023-11-19T03:40:19;102052.56;;;8.94;100.00
51460;BME280;37534;39.772;2.718;2023-11-19T03:42:46;102030.22;;;8.84;100.00
51460;BME280;37534;39.772;2.718;2023-11-19T03:45:11;102054.31;;;8.96;100.00
51460;BME280;37534;39.772;2.718;2023-11-19T03:47:37;102049.09;;;8.86;100.00
51460;BME280;37534;39.772;2.718;2023-11-19T03:50:04;102042.25;;;8.85;100.00
51460;BME280;37534;39.772;2.718;2023-11-19T03:52:30;102052.56;;;8.93;100.00
51460;BME280;37534;39.772;2.718;2023-11-19T03:54:55;102062.88;;;8.98;100.00
51460;BME280;37534;39.772;2.718;2023-11-19T03:57:22;102037.16;;;8.99;100.00
51460;BME280;37534;39.772;2.718;2023-11-19T03:59:51;102050.84;;;8.97;100.00
51460;BME280;37534;39.772;2.718;2023-11-19T04:02:17;102045.69;;;8.87;100.00
51460;BME280;37534;39.772;2.718;2023-11-19T04:04:43;102031.94;;;8.82;100.00
51460;BME280;37534;39.772;2.718;2023-11-19T04:07:08;102012.19;;;8.75;100.00
51460;BME280;37534;39.772;2.718;2023-11-19T04:09:34;102037.09;;;8.85;100.00
51460;BME280;37534;39.772;2.718;2023-11-19T04:12:02;102023.34;;;8.77;100.00
51460;BME280;37534;39.772;2.718;2023-11-19T04:14:27;102034.53;;;8.84;100.00
51460;BME280;37534;39.772;2.718;2023-11-19T04:16:53;102019.94;;;8.78;100.00
51460;BME280;37534;39.772;2.718;2023-11-19T04:19:19;101990.75;;;8.64;100.00
51460;BME280;37534;39.772;2.718;2023-11-19T04:21:45;102018.22;;;8.80;100.00
51460;BME280;37534;39.772;2.718;2023-11-19T04:24:12;101979.56;;;8.55;100.00
51460;BME280;37534;39.772;2.718;2023-11-19T04:26:43;101999.34;;;8.75;100.00
51460;BME280;37534;39.772;2.718;2023-11-19T04:29:14;102001.06;;;8.79;100.00
51460;BME280;37534;39.772;2.718;2023-11-19T04:31:40;102029.41;;;8.94;100.00
51460;BME280;37534;39.772;2.718;2023-11-19T04:34:09;101995.88;;;8.67;100.00
51460;BME280;37534;39.772;2.718;2023-11-19T04:36:34;102026.81;;;8.94;100.00
51460;BME280;37534;39.772;2.718;2023-11-19T04:39:01;102019.13;;;8.99;100.00
51460;BME280;37534;39.772;2.718;2023-11-19T04:41:27;102035.41;;;9.00;100.00
51460;BME280;37534;39.772;2.718;2023-11-19T04:43:55;102022.53;;;8.81;100.00
51460;BME280;37534;39.772;2.718;2023-11-19T04:46:21;102013.91;;;8.70;100.00
51460;BME280;37534;39.772;2.718;2023-11-19T04:48:46;102030.22;;;8.78;100.00
51460;BME280;37534;39.772;2.718;2023-11-19T04:51:12;102040.50;;;8.73;100.00
51460;BME280;37534;39.772;2.718;2023-11-19T04:53:37;102039.66;;;8.79;100.00
51460;BME280;37534;39.772;2.718;2023-11-19T04:56:10;102034.47;;;8.70;100.00
51460;BME280;37534;39.772;2.718;2023-11-19T04:58:35;102026.75;;;8.64;100.00
51460;BME280;37534;39.772;2.718;2023-11-19T05:01:03;102036.19;;;8.66;100.00
51460;BME280;37534;39.772;2.718;2023-11-19T05:03:29;102016.44;;;8.54;100.00
51460;BME280;37534;39.772;2.718;2023-11-19T05:05:54;102040.53;;;8.78;100.00
51460;BME280;37534;39.772;2.718;2023-11-19T05:08:20;102022.50;;;8.86;100.00
51460;BME280;37534;39.772;2.718;2023-11-19T05:10:45;102015.63;;;8.77;100.00
51460;BME280;37534;39.772;2.718;2023-11-19T05:13:11;102027.63;;;8.66;100.00
51460;BME280;37534;39.772;2.718;2023-11-19T05:15:38;102028.44;;;8.63;100.00
51460;BME280;37534;39.772;2.718;2023-11-19T05:18:03;102019.88;;;8.56;100.00
51460;BME280;37534;39.772;2.718;2023-11-19T05:20:30;102021.56;;;8.51;100.00
51460;BME280;37534;39.772;2.718;2023-11-19T05:22:55;102002.63;;;8.37;100.00
51460;BME280;37534;39.772;2.718;2023-11-19T05:25:21;102010.41;;;8.48;100.00
51460;BME280;37534;39.772;2.718;2023-11-19T05:27:46;102013.81;;;8.45;100.00
51460;BME280;37534;39.772;2.718;2023-11-19T05:30:12;101979.44;;;8.31;100.00
51460;BME280;37534;39.772;2.718;2023-11-19T05:32:38;102006.91;;;8.41;100.00
51460;BME280;37534;39.772;2.718;2023-11-19T05:35:04;102004.34;;;8.35;100.00
51460;BME280;37534;39.772;2.718;2023-11-19T05:37:29;102024.06;;;8.39;100.00
51460;BME280;37534;39.772;2.718;2023-11-19T05:39:55;102016.44;;;8.54;100.00
51460;BME280;37534;39.772;2.718;2023-11-19T05:42:20;102026.75;;;8.64;100.00
51460;BME280;37534;39.772;2.718;2023-11-19T05:44:49;102009.59;;;8.63;100.00
51460;BME280;37534;39.772;2.718;2023-11-19T05:47:15;101974.31;;;8.32;100.00
51460;BME280;37534;39.772;2.718;2023-11-19T05:49:40;101988.91;;;8.35;100.00
51460;BME280;37534;39.772;2.718;2023-11-19T05:52:06;102012.03;;;8.30;100.00
51460;BME280;37534;39.772;2.718;2023-11-19T05:54:33;102007.69;;;8.22;100.00
51460;BME280;37534;39.772;2.718;2023-11-19T05:57:06;101992.22;;;8.09;100.00
51460;BME280;37534;39.772;2.718;2023-11-19T05:59:34;102030.88;;;8.31;100.00
51460;BME280;37534;39.772;2.718;2023-11-19T06:02:01;102029.16;;;8.28;100.00
51460;BME280;37534;39.772;2.718;2023-11-19T06:04:30;102018.81;;;8.21;100.00
51460;BME280;37534;39.772;2.718;2023-11-19T06:06:56;102012.00;;;8.21;100.00
51460;BME280;37534;39.772;2.718;2023-11-19T06:09:24;101992.28;;;8.28;100.00
51460;BME280;37534;39.772;2.718;2023-11-19T06:11:51;102030.13;;;8.50;100.00
51460;BME280;37534;39.772;2.718;2023-11-19T06:14:16;102024.09;;;8.45;100.00
51460;BME280;37534;39.772;2.718;2023-11-19T06:16:42;102025.84;;;8.51;100.00
51460;BME280;37534;39.772;2.718;2023-11-19T06:19:07;101987.16;;;8.25;100.00
51460;BME280;37534;39.772;2.718;2023-11-19T06:21:34;102021.47;;;8.36;100.00
51460;BME280;37534;39.772;2.718;2023-11-19T06:24:02;102010.28;;;8.22;100.00
51460;BME280;37534;39.772;2.718;2023-11-19T06:26:29;102013.66;;;8.13;100.00
51460;BME280;37534;39.772;2.718;2023-11-19T06:28:55;101986.16;;;7.95;100.00
51460;BME280;37534;39.772;2.718;2023-11-19T06:31:20;101979.28;;;7.89;100.00
51460;BME280;37534;39.772;2.718;2023-11-19T06:33:46;102021.47;;;8.37;100.00
51460;BME280;37534;39.772;2.718;2023-11-19T06:36:14;102049.03;;;8.55;100.00
51460;BME280;37534;39.772;2.718;2023-11-19T06:38:42;102052.47;;;8.54;100.00
51460;BME280;37534;39.772;2.718;2023-11-19T06:41:08;102013.72;;;8.25;100.00
51460;BME280;37534;39.772;2.718;2023-11-19T06:43:34;102025.72;;;8.28;100.00
51460;BME280;37534;39.772;2.718;2023-11-19T06:46:00;102039.47;;;8.34;100.00
51460;BME280;37534;39.772;2.718;2023-11-19T06:48:25;102043.78;;;8.37;100.00
51460;BME280;37534;39.772;2.718;2023-11-19T06:50:51;102042.88;;;8.29;100.00
51460;BME280;37534;39.772;2.718;2023-11-19T06:53:16;102041.16;;;8.29;100.00
51460;BME280;37534;39.772;2.718;2023-11-19T06:55:42;102017.97;;;8.15;100.00
51460;BME280;37534;39.772;2.718;2023-11-19T06:58:07;102034.31;;;8.28;100.00
51460;BME280;37534;39.772;2.718;2023-11-19T07:00:33;102028.28;;;8.28;100.00
51460;BME280;37534;39.772;2.718;2023-11-19T07:02:59;102049.84;;;8.42;100.00
51460;BME280;37534;39.772;2.718;2023-11-19T07:05:28;102020.56;;;8.28;100.00
51460;BME280;37534;39.772;2.718;2023-11-19T07:07:53;102031.72;;;8.31;100.00
51460;BME280;37534;39.772;2.718;2023-11-19T07:10:19;102044.63;;;8.39;100.00
51460;BME280;37534;39.772;2.718;2023-11-19T07:12:45;102056.72;;;8.54;100.00
51460;BME280;37534;39.772;2.718;2023-11-19T07:15:15;102031.91;;;8.64;100.00
51460;BME280;37534;39.772;2.718;2023-11-19T07:17:43;102058.50;;;8.72;100.00
51460;BME280;37534;39.772;2.718;2023-11-19T07:20:10;102055.88;;;8.60;100.00
51460;BME280;37534;39.772;2.718;2023-11-19T07:22:43;102037.84;;;8.50;100.00
51460;BME280;37534;39.772;2.718;2023-11-19T07:25:08;102029.22;;;8.41;100.00
51460;BME280;37534;39.772;2.718;2023-11-19T07:27:34;102047.31;;;8.57;100.00
51460;BME280;37534;39.772;2.718;2023-11-19T07:29:59;102030.19;;;8.66;100.00
51460;BME280;37534;39.772;2.718;2023-11-19T07:32:25;102049.16;;;8.96;100.00
51460;BME280;37534;39.772;2.718;2023-11-19T07:34:50;102033.66;;;8.79;100.00
51460;BME280;37534;39.772;2.718;2023-11-19T07:37:16;102045.66;;;8.84;100.00
51460;BME280;37534;39.772;2.718;2023-11-19T07:39:42;102019.88;;;8.61;100.00
51460;BME280;37534;39.772;2.718;2023-11-19T07:42:07;102056.81;;;8.80;100.00
51460;BME280;37534;39.772;2.718;2023-11-19T07:44:34;102045.66;;;8.73;100.00
51460;BME280;37534;39.772;2.718;2023-11-19T07:47:00;102023.34;;;8.68;100.00
51460;BME280;37534;39.772;2.718;2023-11-19T07:49:25;102046.53;;;8.86;100.00
51460;BME280;37534;39.772;2.718;2023-11-19T07:51:51;102055.13;;;8.91;100.00
51460;BME280;37534;39.772;2.718;2023-11-19T07:54:19;102019.06;;;8.74;100.00
51460;BME280;37534;39.772;2.718;2023-11-19T07:56:46;102028.53;;;8.85;100.00
51460;BME280;37534;39.772;2.718;2023-11-19T07:59:12;102039.69;;;8.87;100.00
51460;BME280;37534;39.772;2.718;2023-11-19T08:01:37;102036.22;;;8.79;100.00
51460;BME280;37534;39.772;2.718;2023-11-19T08:04:06;102071.44;;;8.97;100.00
51460;BME280;37534;39.772;2.718;2023-11-19T08:06:31;102068.03;;;9.01;100.00
51460;BME280;37534;39.772;2.718;2023-11-19T08:08:57;102058.56;;;8.97;100.00
51460;BME280;37534;39.772;2.718;2023-11-19T08:11:22;102033.66;;;8.86;100.00
51460;BME280;37534;39.772;2.718;2023-11-19T08:13:48;102088.66;;;9.18;100.00
51460;BME280;37534;39.772;2.718;2023-11-19T08:16:14;102084.38;;;9.21;100.00
51460;BME280;37534;39.772;2.718;2023-11-19T08:18:43;102092.13;;;9.37;100.00
51460;BME280;37534;39.772;2.718;2023-11-19T08:21:09;102074.94;;;9.28;100.00
51460;BME280;37534;39.772;2.718;2023-11-19T08:23:35;102100.75;;;9.54;100.00
51460;BME280;37534;39.772;2.718;2023-11-19T08:26:01;102079.25;;;9.44;100.00
51460;BME280;37534;39.772;2.718;2023-11-19T08:28:26;102099.03;;;9.47;100.00
51460;BME280;37534;39.772;2.718;2023-11-19T08:30:52;102098.16;;;9.40;100.00
51460;BME280;37534;39.772;2.718;2023-11-19T08:33:18;102110.16;;;9.43;100.00
51460;BME280;37534;39.772;2.718;2023-11-19T08:35:44;102090.41;;;9.45;100.00
51460;BME280;37534;39.772;2.718;2023-11-19T08:38:10;102105.00;;;9.94;100.00
51460;BME280;37534;39.772;2.718;2023-11-19T08:40:36;102112.75;;;11.82;100.00
51460;BME280;37534;39.772;2.718;2023-11-19T08:43:02;102115.94;;;14.00;100.00
51460;BME280;37534;39.772;2.718;2023-11-19T08:45:28;102100.69;;;16.50;100.00
51460;BME280;37534;39.772;2.718;2023-11-19T08:47:53;102096.91;;;18.94;100.00
51460;BME280;37534;39.772;2.718;2023-11-19T08:50:19;102112.13;;;21.26;95.17
51460;BME280;37534;39.772;2.718;2023-11-19T08:52:44;102127.78;;;23.14;79.49
51460;BME280;37534;39.772;2.718;2023-11-19T08:55:10;102101.81;;;24.69;65.17
51460;BME280;37534;39.772;2.718;2023-11-19T08:57:36;102102.88;;;25.74;57.82
51460;BME280;37534;39.772;2.718;2023-11-19T09:00:02;102127.78;;;27.21;52.91
51460;BME280;37534;39.772;2.718;2023-11-19T09:02:33;102111.38;;;27.98;49.43
51460;BME280;37534;39.772;2.718;2023-11-19T09:04:59;102103.19;;;28.90;46.18
51460;BME280;37534;39.772;2.718;2023-11-19T09:07:24;102111.97;;;30.07;42.64
51460;BME280;37534;39.772;2.718;2023-11-19T09:09:50;102106.28;;;30.71;40.89
51460;BME280;37534;39.772;2.718;2023-11-19T09:12:18;102114.16;;;31.61;39.45
51460;BME280;37534;39.772;2.718;2023-11-19T09:14:44;102122.19;;;32.54;37.75
51460;BME280;37534;39.772;2.718;2023-11-19T09:17:11;102113.47;;;33.15;36.15
51460;BME280;37534;39.772;2.718;2023-11-19T09:19:37;102122.59;;;33.57;35.15
51460;BME280;37534;39.772;2.718;2023-11-19T09:22:02;102118.63;;;33.87;34.50
51460;BME280;37534;39.772;2.718;2023-11-19T09:24:29;102122.59;;;34.18;34.04
51460;BME280;37534;39.772;2.718;2023-11-19T09:26:54;102125.56;;;34.57;32.67
51460;BME280;37534;39.772;2.718;2023-11-19T09:29:21;102128.03;;;35.18;32.19
51460;BME280;37534;39.772;2.718;2023-11-19T09:31:47;102122.47;;;35.52;30.76
51460;BME280;37534;39.772;2.718;2023-11-19T09:34:12;102112.97;;;35.25;30.59
51460;BME280;37534;39.772;2.718;2023-11-19T09:36:38;102125.50;;;34.92;30.61
51460;BME280;37534;39.772;2.718;2023-11-19T09:39:08;102111.91;;;34.85;31.88
51460;BME280;37534;39.772;2.718;2023-11-19T09:41:35;102114.69;;;35.82;30.75
51460;BME280;37534;39.772;2.718;2023-11-19T09:44:00;102120.97;;;36.06;30.70
51460;BME280;37534;39.772;2.718;2023-11-19T09:46:26;102116.16;;;36.32;29.51
51460;BME280;37534;39.772;2.718;2023-11-19T09:48:53;102104.13;;;36.98;29.62
51460;BME280;37534;39.772;2.718;2023-11-19T09:51:20;102116.75;;;36.74;29.75
51460;BME280;37534;39.772;2.718;2023-11-19T09:53:46;102113.44;;;36.64;29.21
51460;BME280;37534;39.772;2.718;2023-11-19T09:56:12;102117.94;;;36.95;29.68
51460;BME280;37534;39.772;2.718;2023-11-19T09:58:38;102115.19;;;37.41;29.12
51460;BME280;37534;39.772;2.718;2023-11-19T10:01:03;102123.91;;;36.59;26.97
51460;BME280;37534;39.772;2.718;2023-11-19T10:03:33;102107.78;;;36.59;28.33
51460;BME280;37534;39.772;2.718;2023-11-19T10:06:09;102107.50;;;37.53;26.58
51460;BME280;37534;39.772;2.718;2023-11-19T10:08:39;102116.47;;;37.45;27.23
51460;BME280;37534;39.772;2.718;2023-11-19T10:11:06;102109.25;;;37.90;26.59
51460;BME280;37534;39.772;2.718;2023-11-19T10:13:37;102097.06;;;38.46;25.85
51460;BME280;37534;39.772;2.718;2023-11-19T10:16:12;102102.28;;;38.32;23.44
51460;BME280;37534;39.772;2.718;2023-11-19T10:18:49;102101.97;;;38.05;25.98
51460;BME280;37534;39.772;2.718;2023-11-19T10:21:19;102092.41;;;38.18;25.66
51460;BME280;37534;39.772;2.718;2023-11-19T10:23:54;102097.03;;;38.09;24.85
51460;BME280;37534;39.772;2.718;2023-11-19T10:26:22;102087.91;;;37.89;24.70
51460;BME280;37534;39.772;2.718;2023-11-19T10:28:48;102087.88;;;38.40;25.73
51460;BME280;37534;39.772;2.718;2023-11-19T10:31:18;102087.97;;;38.47;25.04
51460;BME280;37534;39.772;2.718;2023-11-19T10:33:45;102078.19;;;39.17;24.27
51460;BME280;37534;39.772;2.718;2023-11-19T10:36:14;102074.97;;;38.35;23.94
51460;BME280;37534;39.772;2.718;2023-11-19T10:38:40;102080.22;;;39.08;24.42
51460;BME280;37534;39.772;2.718;2023-11-19T10:41:06;102072.88;;;39.59;23.51
51460;BME280;37534;39.772;2.718;2023-11-19T10:43:42;102073.56;;;39.81;22.75
51460;BME280;37534;39.772;2.718;2023-11-19T10:46:11;102062.94;;;39.66;22.16
51460;BME280;37534;39.772;2.718;2023-11-19T10:48:38;102054.47;;;39.82;21.59
51460;BME280;37534;39.772;2.718;2023-11-19T10:51:05;102061.41;;;39.57;22.21
51460;BME280;37534;39.772;2.718;2023-11-19T10:53:37;102068.69;;;39.98;21.27
51460;BME280;37534;39.772;2.718;2023-11-19T10:56:10;102066.50;;;39.73;20.91
51460;BME280;37534;39.772;2.718;2023-11-19T10:58:36;102053.00;;;40.48;20.54
51460;BME280;37534;39.772;2.718;2023-11-19T11:01:11;102045.91;;;40.47;20.42
51460;BME280;37534;39.772;2.718;2023-11-19T11:03:40;102041.06;;;40.09;21.09
51460;BME280;37534;39.772;2.718;2023-11-19T11:06:05;102051.06;;;40.28;20.81
51460;BME280;37534;39.772;2.718;2023-11-19T11:08:32;102049.84;;;39.69;21.32
51460;BME280;37534;39.772;2.718;2023-11-19T11:11:02;102040.41;;;38.89;21.57
51460;BME280;37534;39.772;2.718;2023-11-19T11:13:29;102041.97;;;38.55;21.63
51460;BME280;37534;39.772;2.718;2023-11-19T11:15:57;102028.41;;;38.20;22.38
51460;BME280;37534;39.772;2.718;2023-11-19T11:18:24;102032.38;;;37.43;23.13
51460;BME280;37534;39.772;2.718;2023-11-19T11:21:20;102030.41;;;37.81;22.96
51460;BME280;37534;39.772;2.718;2023-11-19T11:29:44;102019.06;;;36.04;24.55
51460;BME280;37534;39.772;2.718;2023-11-19T11:32:41;102016.50;;;37.48;24.21
51460;BME280;37534;39.772;2.718;2023-11-19T11:35:25;102000.91;;;38.31;22.85
51460;BME280;37534;39.772;2.718;2023-11-19T11:38:06;101988.78;;;38.42;22.46
51460;BME280;37534;39.772;2.718;2023-11-19T11:40:32;101993.44;;;38.55;22.44
51460;BME280;37534;39.772;2.718;2023-11-19T11:42:58;101980.72;;;38.20;22.77
51460;BME280;37534;39.772;2.718;2023-11-19T11:45:38;101978.66;;;38.72;22.51
51460;BME280;37534;39.772;2.718;2023-11-19T11:48:17;101982.47;;;37.25;23.68
51460;BME280;37534;39.772;2.718;2023-11-19T11:50:53;101982.56;;;37.47;23.87
51460;BME280;37534;39.772;2.718;2023-11-19T11:53:20;101962.72;;;38.06;23.51
51460;BME280;37534;39.772;2.718;2023-11-19T11:58:17;101957.72;;;38.03;23.54
51460;BME280;37534;39.772;2.718;2023-11-19T12:00:43;101957.31;;;36.88;24.38
51460;BME280;37534;39.772;2.718;2023-11-19T12:03:09;101960.16;;;37.61;24.69
51460;BME280;37534;39.772;2.718;2023-11-19T12:05:44;101951.13;;;38.27;25.19
51460;BME280;37534;39.772;2.718;2023-11-19T12:08:11;101957.06;;;39.35;24.57
51460;BME280;37534;39.772;2.718;2023-11-19T12:10:50;101956.75;;;39.59;24.27
51460;BME280;37534;39.772;2.718;2023-11-19T12:13:17;101953.66;;;39.75;24.07
51460;BME280;37534;39.772;2.718;2023-11-19T12:16:07;101948.13;;;40.23;24.04
51460;BME280;37534;39.772;2.718;2023-11-19T12:18:32;101952.69;;;40.70;23.83
51460;BME280;37534;39.772;2.718;2023-11-19T12:20:59;101946.06;;;40.25;23.66
51460;BME280;37534;39.772;2.718;2023-11-19T12:23:31;101941.91;;;40.43;23.67
51460;BME280;37534;39.772;2.718;2023-11-19T12:25:58;101939.34;;;39.81;23.72
51460;BME280;37534;39.772;2.718;2023-11-19T12:28:24;101941.50;;;40.46;23.43
51460;BME280;37534;39.772;2.718;2023-11-19T12:30:52;101935.66;;;40.62;23.20
51460;BME280;37534;39.772;2.718;2023-11-19T12:33:19;101944.38;;;40.31;23.67
51460;BME280;37534;39.772;2.718;2023-11-19T12:35:47;101930.22;;;40.76;23.45
51460;BME280;37534;39.772;2.718;2023-11-19T12:38:19;101938.72;;;40.93;23.57
51460;BME280;37534;39.772;2.718;2023-11-19T12:40:46;101933.50;;;41.04;23.40
51460;BME280;37534;39.772;2.718;2023-11-19T12:43:21;101936.06;;;40.53;24.04
51460;BME280;37534;39.772;2.718;2023-11-19T12:45:47;101933.16;;;39.94;24.15
51460;BME280;37534;39.772;2.718;2023-11-19T12:48:13;101921.50;;;39.94;24.18
51460;BME280;37534;39.772;2.718;2023-11-19T12:50:58;101933.97;;;40.08;24.93
51460;BME280;37534;39.772;2.718;2023-11-19T12:53:26;101929.22;;;39.28;26.35
51460;BME280;37534;39.772;2.718;2023-11-19T12:55:53;101920.44;;;39.20;26.22
51460;BME280;37534;39.772;2.718;2023-11-19T12:58:36;101941.06;;;38.64;26.92
51460;BME280;37534;39.772;2.718;2023-11-19T13:01:08;101934.75;;;39.20;26.29